Shawmut, Alabama
Current Conditions -  °F | °C
As of 10:35 AM on Tuesday 27 Jan 2015 (Local Time) from KLGC Reporting Station
Scattered Clouds Scattered Clouds  
Wind Chill: 55°   Ceiling: Unl
Heat Index: 55°   Visibility: 10mi
Dew Point: 36°   Wind: 13mph
Humidity: 48%   Direction: 360°N
Pressure: 29.97"   Gusts: 20mph
Location:  32.7858°N, 85.1946°W
Report Text: KLGC 271635Z AUTO 36011G17KT 320V020 10SM SCT048 13/02 A2997 RMK AO2 T01300023
Loading
Personal Weather Stations






























Interactive Weather Map New forecast layout! Learn more

10-Day Weather Forecast

Advertisements
Track Severe Weather on mobile